Time;durP1;ratioP1;P1;durP2;ratioP2;P2;SDS_P1;SDS_P2;PMS_P1;PMS_P2;Temp;Humidity;BMP_temperature;BMP_pressure;BME280_temperature;BME280_humidity;BME280_pressure;Samples;Min_cycle;Max_cycle;Signal;HPM_P1;HPM_P2
2024/01/03 00:00:18;;;;;;;8.50;1.87;;;;;;;8.36;100.00;98213.25;5023257;28;20519;-71
2024/01/03 00:02:44;;;;;;;13.17;1.50;;;;;;;8.19;100.00;98183.13;5027847;28;20441;-71
2024/01/03 00:05:10;;;;;;;11.23;1.70;;;;;;;8.34;100.00;98193.19;5035459;28;20187;-71
2024/01/03 00:07:36;;;;;;;7.27;1.40;;;;;;;8.31;100.00;98191.81;5032095;28;20475;-71
2024/01/03 00:10:09;;;;;;;8.80;1.63;;;;;;;7.91;100.00;98170.72;5031325;28;20450;-69
2024/01/03 00:12:35;;;;;;;6.20;1.23;;;;;;;7.62;100.00;98122.03;5034329;28;20224;-69
2024/01/03 00:15:18;;;;;;;7.30;1.40;;;;;;;8.12;100.00;98217.19;5034097;28;20526;-69
2024/01/03 00:17:44;;;;;;;8.40;1.30;;;;;;;7.46;100.00;98132.50;5036908;28;20223;-69
2024/01/03 00:20:10;;;;;;;6.20;1.30;;;;;;;6.95;100.00;98033.09;5032514;28;20478;-68
2024/01/03 00:22:35;;;;;;;7.30;1.20;;;;;;;7.36;100.00;98089.69;5032770;28;20348;-69
2024/01/03 00:25:00;;;;;;;8.23;1.43;;;;;;;7.71;100.00;98144.56;5034271;28;20206;-68
2024/01/03 00:27:26;;;;;;;8.43;1.30;;;;;;;8.01;100.00;98196.75;5028307;28;20216;-69
2024/01/03 00:29:53;;;;;;;10.17;1.70;;;;;;;7.37;100.00;98077.94;5016126;28;20745;-69
2024/01/03 00:32:21;;;;;;;10.63;1.63;;;;;;;7.92;100.00;98178.47;5007414;28;20198;-69
2024/01/03 00:34:47;;;;;;;11.50;1.40;;;;;;;7.87;100.00;98151.75;5030313;28;20663;-69
2024/01/03 00:37:24;;;;;;;12.50;1.80;;;;;;;7.30;100.00;98077.31;5019856;28;20523;-69
2024/01/03 00:39:50;;;;;;;10.33;1.33;;;;;;;7.78;100.00;98155.91;5028247;28;20294;-69
2024/01/03 00:42:16;;;;;;;12.30;1.80;;;;;;;7.92;100.00;98169.66;5029152;28;21009;-69
2024/01/03 00:44:42;;;;;;;9.53;1.77;;;;;;;7.85;100.00;98129.81;5009474;28;20452;-68
2024/01/03 00:47:08;;;;;;;11.57;2.43;;;;;;;8.01;100.00;98162.84;5011467;28;21314;-69
2024/01/03 00:49:34;;;;;;;5.70;1.53;;;;;;;7.84;100.00;98141.56;5030458;28;20192;-69
2024/01/03 00:52:01;;;;;;;10.03;1.63;;;;;;;7.48;100.00;98090.38;5031265;28;20446;-69
2024/01/03 00:54:30;;;;;;;9.87;1.57;;;;;;;8.00;100.00;98171.13;5035882;28;20434;-69
2024/01/03 00:56:58;;;;;;;11.97;1.47;;;;;;;7.90;100.00;98227.84;5024474;28;20458;-69
2024/01/03 00:59:23;;;;;;;12.67;1.93;;;;;;;7.93;100.00;98168.63;5003697;28;20486;-68
2024/01/03 01:01:49;;;;;;;15.27;1.90;;;;;;;7.57;100.00;98125.44;5028011;28;20437;-69
2024/01/03 01:04:15;;;;;;;9.40;1.93;;;;;;;7.89;100.00;98170.16;5030081;28;20532;-69
2024/01/03 01:06:42;;;;;;;9.40;1.90;;;;;;;7.76;100.00;98150.00;5022200;28;20651;-71
2024/01/03 01:09:08;;;;;;;14.10;2.23;;;;;;;7.16;100.00;98066.19;5012706;28;21028;-70
2024/01/03 01:11:35;;;;;;;8.27;1.63;;;;;;;7.84;100.00;98180.75;5018576;28;20442;-72
2024/01/03 01:14:00;;;;;;;7.70;1.80;;;;;;;7.82;100.00;98188.22;5021983;28;20443;-72
2024/01/03 01:16:26;;;;;;;8.50;1.73;;;;;;;7.79;100.00;98191.38;5030574;28;20434;-72
2024/01/03 01:18:51;;;;;;;7.80;1.33;;;;;;;6.95;100.00;98077.59;5012069;28;20231;-72
2024/01/03 01:21:17;;;;;;;8.03;1.50;;;;;;;7.61;100.00;98179.94;5007157;28;20580;-72
2024/01/03 01:23:42;;;;;;;9.60;2.30;;;;;;;7.28;100.00;98161.28;5024820;28;20192;-72
2024/01/03 01:26:08;;;;;;;8.87;1.23;;;;;;;7.56;100.00;98169.19;5029231;28;20199;-72
2024/01/03 01:28:34;;;;;;;6.07;1.37;;;;;;;7.70;100.00;98212.34;5009645;28;20246;-72
2024/01/03 01:30:59;;;;;;;10.00;1.73;;;;;;;7.70;100.00;98201.66;5030337;28;20431;-72
2024/01/03 01:33:24;;;;;;;9.63;1.70;;;;;;;7.58;100.00;98175.09;5026657;28;20200;-72
2024/01/03 01:35:50;;;;;;;9.87;2.10;;;;;;;7.63;100.00;98193.00;5012109;28;20287;-72
2024/01/03 01:38:15;;;;;;;6.73;1.33;;;;;;;7.20;100.00;98117.16;5029222;28;20211;-73
2024/01/03 01:40:41;;;;;;;11.37;1.90;;;;;;;7.32;100.00;98139.22;5027297;28;20199;-72
2024/01/03 01:43:07;;;;;;;7.60;1.50;;;;;;;7.69;100.00;98219.53;5023977;28;20187;-72
2024/01/03 01:45:32;;;;;;;12.03;2.40;;;;;;;7.65;100.00;98204.25;5021709;28;20183;-72
2024/01/03 01:47:59;;;;;;;10.03;3.00;;;;;;;7.68;100.00;98204.56;5024030;28;20294;-72
2024/01/03 01:50:25;;;;;;;16.33;2.80;;;;;;;7.65;100.00;98198.91;5021894;28;20210;-72
2024/01/03 01:52:52;;;;;;;8.03;1.93;;;;;;;7.70;100.00;98205.13;5024081;28;20447;-72
2024/01/03 01:55:18;;;;;;;10.10;2.43;;;;;;;7.55;100.00;98206.75;5027816;28;20525;-72
2024/01/03 01:57:45;;;;;;;12.53;2.30;;;;;;;7.27;100.00;98146.34;4999265;28;20470;-71
2024/01/03 02:00:12;;;;;;;12.93;1.80;;;;;;;7.20;100.00;98136.66;5027882;28;20526;-71
2024/01/03 02:02:39;;;;;;;9.50;1.80;;;;;;;7.58;100.00;98187.59;5025071;28;20949;-72
2024/01/03 02:05:05;;;;;;;8.57;1.50;;;;;;;7.38;100.00;98174.78;5037021;28;20546;-71
2024/01/03 02:07:31;;;;;;;11.80;2.30;;;;;;;7.70;100.00;98239.03;5039014;28;20957;-72
2024/01/03 02:09:56;;;;;;;9.43;2.17;;;;;;;7.72;100.00;98196.88;5026633;28;20493;-72
2024/01/03 02:12:29;;;;;;;16.73;2.57;;;;;;;7.40;100.00;98170.78;5014539;28;20187;-72
2024/01/03 02:14:55;;;;;;;12.70;2.50;;;;;;;7.32;100.00;98165.06;5007804;28;20222;-72
2024/01/03 02:17:21;;;;;;;12.47;2.77;;;;;;;7.63;100.00;98211.69;5022781;28;20550;-72
2024/01/03 02:19:47;;;;;;;10.90;2.57;;;;;;;7.77;100.00;98222.84;5016084;28;20478;-72
2024/01/03 02:22:13;;;;;;;11.07;1.80;;;;;;;7.69;100.00;98203.53;5032903;28;21156;-72
2024/01/03 02:24:38;;;;;;;13.27;2.50;;;;;;;7.75;100.00;98236.41;5008759;28;20545;-72
2024/01/03 02:27:04;;;;;;;17.90;2.17;;;;;;;7.41;100.00;98150.28;5028913;28;20254;-72
2024/01/03 02:29:29;;;;;;;15.03;2.50;;;;;;;7.30;100.00;98162.66;5022540;28;20210;-72
2024/01/03 02:31:55;;;;;;;13.63;2.07;;;;;;;7.83;100.00;98267.22;5023048;28;20184;-72
2024/01/03 02:34:20;;;;;;;12.43;2.23;;;;;;;7.88;100.00;98243.28;5007792;28;20861;-72
2024/01/03 02:36:51;;;;;;;14.67;1.73;;;;;;;7.85;100.00;98247.25;5004815;28;20184;-72
2024/01/03 02:39:16;;;;;;;10.50;1.97;;;;;;;7.39;100.00;98197.72;5023354;28;20211;-72
2024/01/03 02:41:42;;;;;;;11.00;2.10;;;;;;;7.87;100.00;98290.53;5005704;28;20439;-72
2024/01/03 02:44:07;;;;;;;10.30;2.03;;;;;;;7.86;100.00;98266.72;5031544;28;20184;-72
2024/01/03 02:46:33;;;;;;;9.00;1.77;;;;;;;7.47;100.00;98219.47;5007647;28;20191;-72
2024/01/03 02:48:58;;;;;;;12.27;2.00;;;;;;;7.90;100.00;98260.69;5024022;28;20176;-72
2024/01/03 02:51:23;;;;;;;14.87;1.90;;;;;;;7.66;100.00;98230.69;5031951;28;20191;-71
2024/01/03 02:53:49;;;;;;;12.53;1.90;;;;;;;7.26;100.00;98174.84;5020907;28;20196;-72
2024/01/03 02:56:15;;;;;;;11.87;2.07;;;;;;;7.92;100.00;98276.44;5012490;28;20274;-72
2024/01/03 02:58:41;;;;;;;15.60;1.97;;;;;;;7.97;100.00;98324.56;5006728;28;20212;-74
2024/01/03 03:01:07;;;;;;;12.93;1.77;;;;;;;7.97;100.00;98321.91;5031253;28;20805;-73
2024/01/03 03:03:33;;;;;;;12.60;2.10;;;;;;;7.66;100.00;98259.22;5022641;28;20315;-73
2024/01/03 03:05:58;;;;;;;16.13;3.07;;;;;;;7.49;100.00;98264.53;5028293;28;20461;-74
2024/01/03 03:08:23;;;;;;;12.90;2.77;;;;;;;7.56;100.00;98245.72;5021919;28;20202;-74
2024/01/03 03:10:49;;;;;;;14.50;2.27;;;;;;;7.39;100.00;98230.53;5021700;28;20526;-73
2024/01/03 03:13:14;;;;;;;14.10;2.70;;;;;;;7.97;100.00;98353.13;5023315;28;20239;-74
2024/01/03 03:15:42;;;;;;;16.07;3.10;;;;;;;7.79;100.00;98296.25;5029946;28;20605;-74
2024/01/03 03:18:08;;;;;;;10.70;2.73;;;;;;;7.79;100.00;98301.59;5003234;28;20295;-74
2024/01/03 03:20:33;;;;;;;11.63;1.90;;;;;;;7.89;100.00;98319.63;5010657;28;21528;-73
2024/01/03 03:22:58;;;;;;;12.90;2.50;;;;;;;7.57;100.00;98290.81;5032266;28;20252;-74
2024/01/03 03:25:24;;;;;;;13.73;2.30;;;;;;;7.83;100.00;98326.75;5008622;28;20199;-74
2024/01/03 03:27:50;;;;;;;13.87;2.53;;;;;;;7.76;100.00;98331.44;5021875;28;20207;-74
2024/01/03 03:30:16;;;;;;;13.20;2.37;;;;;;;8.04;100.00;98367.94;5023287;28;20485;-74
2024/01/03 03:32:44;;;;;;;10.70;2.60;;;;;;;7.34;100.00;98298.97;5031657;28;20254;-74
2024/01/03 03:35:10;;;;;;;13.33;2.57;;;;;;;8.03;100.00;98390.31;5005157;28;20195;-74
2024/01/03 03:37:36;;;;;;;16.47;2.47;;;;;;;7.48;100.00;98318.94;5010874;28;20462;-74
2024/01/03 03:40:01;;;;;;;15.27;2.30;;;;;;;7.78;100.00;98364.03;5020624;28;20984;-74
2024/01/03 03:42:27;;;;;;;22.33;3.33;;;;;;;7.85;100.00;98372.69;5023186;28;20194;-74
2024/01/03 03:44:54;;;;;;;13.77;1.80;;;;;;;7.81;100.00;98392.91;5017484;28;20253;-74
2024/01/03 03:47:19;;;;;;;16.60;2.63;;;;;;;8.00;100.00;98443.41;5022908;28;20831;-74
2024/01/03 03:49:45;;;;;;;11.57;2.10;;;;;;;7.90;100.00;98391.47;5026621;28;20470;-74
2024/01/03 03:52:10;;;;;;;11.90;2.27;;;;;;;7.93;100.00;98412.34;5003405;28;20191;-74
2024/01/03 03:54:36;;;;;;;14.57;2.50;;;;;;;7.21;100.00;98298.22;5019421;28;20219;-72
2024/01/03 03:57:02;;;;;;;10.13;1.83;;;;;;;7.22;100.00;98339.81;5001217;28;20272;-71
2024/01/03 03:59:27;;;;;;;11.97;2.57;;;;;;;7.96;100.00;98429.72;5027425;28;20681;-72
2024/01/03 04:01:54;;;;;;;10.60;1.80;;;;;;;7.73;100.00;98381.81;5021928;28;20450;-72
2024/01/03 04:04:20;;;;;;;9.97;1.70;;;;;;;7.10;100.00;98288.41;5021749;28;20180;-72
2024/01/03 04:06:45;;;;;;;12.70;1.90;;;;;;;8.15;100.00;98468.50;5022579;28;20473;-71
2024/01/03 04:09:11;;;;;;;11.30;2.20;;;;;;;8.04;100.00;98477.41;5023736;28;20215;-71
2024/01/03 04:11:41;;;;;;;11.13;1.93;;;;;;;8.08;100.00;98475.06;5022749;28;20253;-71
2024/01/03 04:14:07;;;;;;;7.93;1.63;;;;;;;8.02;100.00;98462.66;5023208;28;20184;-71
2024/01/03 04:16:33;;;;;;;11.20;1.83;;;;;;;8.29;100.00;98529.63;5025804;28;20466;-71
2024/01/03 04:19:00;;;;;;;10.13;2.50;;;;;;;8.26;100.00;98578.19;5024812;28;20466;-71
2024/01/03 04:21:25;;;;;;;12.70;1.87;;;;;;;7.97;100.00;98484.72;5025406;28;20448;-71
2024/01/03 04:23:51;;;;;;;11.40;1.67;;;;;;;8.35;100.00;98566.06;5000415;28;20441;-71
2024/01/03 04:26:16;;;;;;;8.17;1.63;;;;;;;7.41;100.00;98435.66;5007244;28;20193;-72
2024/01/03 04:28:42;;;;;;;7.90;1.43;;;;;;;8.33;100.00;98606.38;5028164;28;20991;-72
2024/01/03 04:31:07;;;;;;;8.90;2.03;;;;;;;8.24;100.00;98578.41;5024421;28;20631;-71
2024/01/03 04:33:32;;;;;;;9.83;1.50;;;;;;;8.32;100.00;98603.94;5027158;28;20188;-71
2024/01/03 04:35:58;;;;;;;9.53;1.73;;;;;;;7.61;100.00;98516.06;5009786;28;20195;-71
2024/01/03 04:38:24;;;;;;;7.60;1.30;;;;;;;8.13;100.00;98574.75;5019746;28;20929;-71
2024/01/03 04:40:49;;;;;;;8.50;1.50;;;;;;;8.09;100.00;98600.28;5015115;28;20188;-72
2024/01/03 04:43:15;;;;;;;9.33;1.40;;;;;;;8.16;100.00;98594.81;5028304;28;20187;-71
2024/01/03 04:45:40;;;;;;;7.87;1.90;;;;;;;8.08;100.00;98574.66;5029143;28;20199;-71
2024/01/03 04:48:06;;;;;;;8.60;1.50;;;;;;;8.17;100.00;98592.97;5033776;28;20934;-71
2024/01/03 04:50:32;;;;;;;7.53;1.77;;;;;;;8.38;100.00;98662.56;5028841;28;20191;-71
2024/01/03 04:52:59;;;;;;;5.97;1.17;;;;;;;7.35;100.00;98501.41;5032372;28;20811;-72
2024/01/03 04:55:25;;;;;;;10.70;1.40;;;;;;;8.22;100.00;98625.91;5019641;28;20188;-72
2024/01/03 04:57:51;;;;;;;10.90;1.90;;;;;;;7.53;100.00;98519.09;5013611;28;20540;-71
2024/01/03 05:00:16;;;;;;;11.93;1.77;;;;;;;8.37;100.00;98631.53;4996939;28;20477;-71
2024/01/03 05:02:42;;;;;;;11.00;2.43;;;;;;;8.36;100.00;98645.97;5030970;28;20196;-71
2024/01/03 05:05:07;;;;;;;7.77;1.47;;;;;;;8.33;100.00;98653.63;5013739;28;20214;-71
2024/01/03 05:07:34;;;;;;;7.77;1.40;;;;;;;6.86;100.00;98412.13;5031098;28;20830;-71
2024/01/03 05:10:00;;;;;;;7.40;1.60;;;;;;;7.61;100.00;98532.09;5036422;28;20590;-71
2024/01/03 05:12:26;;;;;;;7.37;1.87;;;;;;;8.38;100.00;98651.88;5030385;28;20438;-71
2024/01/03 05:14:51;;;;;;;7.83;1.60;;;;;;;8.07;100.00;98597.06;5032875;28;20444;-71
2024/01/03 05:17:17;;;;;;;14.47;2.10;;;;;;;8.01;100.00;98602.50;5041394;28;20215;-71
2024/01/03 05:19:43;;;;;;;7.17;1.63;;;;;;;7.90;100.00;98588.19;5029292;28;20258;-71
2024/01/03 05:22:09;;;;;;;8.60;1.33;;;;;;;8.40;100.00;98656.19;5013279;28;20271;-71
2024/01/03 05:24:34;;;;;;;7.23;1.13;;;;;;;8.42;100.00;98660.25;5032417;28;20551;-71
2024/01/03 05:27:00;;;;;;;8.63;1.63;;;;;;;8.07;100.00;98641.63;5031842;28;20539;-71
2024/01/03 05:29:26;;;;;;;12.00;1.63;;;;;;;8.14;100.00;98644.97;5015037;28;20192;-71
2024/01/03 05:31:51;;;;;;;9.97;2.07;;;;;;;8.26;100.00;98674.31;5029455;28;20192;-71
2024/01/03 05:34:16;;;;;;;9.60;1.43;;;;;;;8.44;100.00;98684.06;5032071;28;20184;-72
2024/01/03 05:36:42;;;;;;;13.27;1.97;;;;;;;8.42;100.00;98670.09;5028071;28;20194;-71
2024/01/03 05:39:08;;;;;;;8.70;1.77;;;;;;;7.35;100.00;98538.75;5031162;28;20208;-72
2024/01/03 05:41:33;;;;;;;11.80;1.73;;;;;;;8.39;100.00;98668.75;5031264;28;20196;-72
2024/01/03 05:43:59;;;;;;;9.53;1.37;;;;;;;7.52;100.00;98556.69;5033004;28;20262;-72
2024/01/03 05:46:24;;;;;;;7.47;1.60;;;;;;;8.19;100.00;98706.50;5025793;28;20191;-72
2024/01/03 05:48:50;;;;;;;11.27;2.27;;;;;;;8.40;100.00;98697.06;5028766;28;20208;-72
2024/01/03 05:51:16;;;;;;;7.87;1.63;;;;;;;7.24;100.00;98559.03;5060073;22;20281;-75
2024/01/03 05:53:47;;;;;;;8.70;1.80;;;;;;;6.75;100.00;98437.72;5014102;28;20193;-74
2024/01/03 05:56:15;;;;;;;7.27;1.67;;;;;;;8.47;100.00;98763.72;5013591;28;20786;-75
2024/01/03 05:58:42;;;;;;;11.83;2.17;;;;;;;8.49;100.00;98721.56;4997190;28;20881;-75
2024/01/03 06:01:08;;;;;;;9.50;1.70;;;;;;;8.49;100.00;98742.94;4998684;28;20502;-75
2024/01/03 06:03:33;;;;;;;13.87;2.10;;;;;;;7.78;100.00;98616.72;4980093;28;20599;-74
2024/01/03 06:05:59;;;;;;;8.97;1.73;;;;;;;8.12;100.00;98692.47;4980243;28;20480;-75
2024/01/03 06:08:24;;;;;;;9.70;1.50;;;;;;;7.50;100.00;98588.94;5004997;28;20266;-75
2024/01/03 06:10:50;;;;;;;6.93;1.67;;;;;;;8.10;100.00;98676.69;4980548;28;20189;-75
2024/01/03 06:13:15;;;;;;;8.33;1.63;;;;;;;7.54;100.00;98582.06;4995458;28;20192;-75
2024/01/03 06:15:41;;;;;;;12.20;2.00;;;;;;;8.47;100.00;98727.13;4999412;28;20188;-75
2024/01/03 06:18:07;;;;;;;10.40;2.13;;;;;;;8.01;100.00;98674.59;5001280;28;20920;-75
2024/01/03 06:20:32;;;;;;;11.13;2.10;;;;;;;8.36;100.00;98744.78;5000764;28;20550;-74
2024/01/03 06:22:58;;;;;;;9.30;1.93;;;;;;;8.40;100.00;98720.31;5003466;28;20197;-75
2024/01/03 06:25:23;;;;;;;9.03;1.60;;;;;;;8.48;100.00;98754.69;4998633;28;20325;-75
2024/01/03 06:27:48;;;;;;;9.97;1.77;;;;;;;8.28;100.00;98733.66;4983170;28;20294;-75
2024/01/03 06:30:14;;;;;;;10.80;1.90;;;;;;;7.89;100.00;98690.63;4999344;28;20177;-75
2024/01/03 06:32:40;;;;;;;10.70;1.93;;;;;;;8.20;100.00;98756.19;4996971;28;20194;-75
2024/01/03 06:35:06;;;;;;;8.10;1.33;;;;;;;7.92;100.00;98701.66;4982726;28;20189;-75
2024/01/03 06:37:31;;;;;;;6.70;1.40;;;;;;;7.82;100.00;98716.66;4981682;28;20601;-75
2024/01/03 06:39:57;;;;;;;8.60;1.63;;;;;;;7.83;100.00;98703.06;4998818;28;20942;-75
2024/01/03 06:42:23;;;;;;;8.10;1.90;;;;;;;7.82;100.00;98698.78;5000666;28;20244;-75
2024/01/03 06:44:48;;;;;;;7.83;1.50;;;;;;;7.55;100.00;98670.91;4978873;28;20867;-75
2024/01/03 06:47:14;;;;;;;9.97;1.60;;;;;;;7.83;100.00;98711.06;4985926;28;20624;-75
2024/01/03 06:49:39;;;;;;;7.20;2.50;;;;;;;7.07;100.00;98583.97;5002350;28;20198;-75
2024/01/03 06:52:05;;;;;;;8.33;1.90;;;;;;;7.79;100.00;98696.56;4997588;28;20257;-75
2024/01/03 06:54:30;;;;;;;9.97;1.53;;;;;;;7.59;100.00;98677.44;5001337;28;20235;-75
2024/01/03 06:56:56;;;;;;;6.27;1.13;;;;;;;6.80;100.00;98557.75;4997523;28;20263;-75
2024/01/03 06:59:21;;;;;;;8.80;1.83;;;;;;;7.14;100.00;98592.63;4999567;28;20200;-75
2024/01/03 07:01:46;;;;;;;7.00;1.50;;;;;;;7.86;100.00;98691.91;4996360;28;20533;-75
2024/01/03 07:04:12;;;;;;;9.07;1.43;;;;;;;7.66;100.00;98668.25;4988085;28;20201;-75
2024/01/03 07:06:38;;;;;;;9.40;2.00;;;;;;;7.80;100.00;98681.34;4992181;28;20190;-75
2024/01/03 07:09:03;;;;;;;11.13;1.90;;;;;;;7.58;100.00;98660.63;4971763;28;20181;-75
2024/01/03 07:11:29;;;;;;;9.80;2.07;;;;;;;7.83;100.00;98702.25;4994491;28;20192;-75
2024/01/03 07:13:55;;;;;;;9.23;1.90;;;;;;;6.95;100.00;98591.94;4967365;28;20189;-75
2024/01/03 07:16:20;;;;;;;7.67;1.50;;;;;;;7.83;100.00;98702.25;4984006;28;20432;-74
2024/01/03 07:18:45;;;;;;;13.43;2.33;;;;;;;7.41;100.00;98673.03;4980907;28;20216;-76
2024/01/03 07:21:11;;;;;;;6.67;1.40;;;;;;;7.79;100.00;98722.44;4988411;28;20197;-77
2024/01/03 07:23:36;;;;;;;9.43;1.67;;;;;;;7.78;100.00;98729.66;4974750;28;20189;-75
2024/01/03 07:26:02;;;;;;;19.20;2.67;;;;;;;7.63;100.00;98703.41;4974928;28;20222;-75
2024/01/03 07:28:27;;;;;;;11.80;2.27;;;;;;;7.73;100.00;98726.84;4974481;28;20767;-75
2024/01/03 07:30:53;;;;;;;16.17;2.23;;;;;;;7.80;100.00;98714.19;4988792;28;20192;-75
2024/01/03 07:33:18;;;;;;;13.77;2.80;;;;;;;7.89;100.00;98736.81;4990504;28;20666;-75
2024/01/03 07:35:44;;;;;;;12.40;2.47;;;;;;;7.90;100.00;98746.47;4984728;28;20193;-75
2024/01/03 07:38:09;;;;;;;16.60;3.40;;;;;;;7.90;100.00;98773.16;4988695;28;20218;-75
2024/01/03 07:40:35;;;;;;;17.87;2.90;;;;;;;7.78;100.00;98742.16;4980909;28;20219;-75
2024/01/03 07:43:00;;;;;;;18.57;3.43;;;;;;;7.42;100.00;98675.44;4988553;28;20200;-75
2024/01/03 07:45:26;;;;;;;17.03;3.50;;;;;;;7.71;100.00;98723.59;4988487;28;20270;-75
2024/01/03 07:47:51;;;;;;;21.07;3.90;;;;;;;8.01;100.00;98774.19;4977313;28;20286;-75
2024/01/03 07:50:18;;;;;;;19.50;3.67;;;;;;;7.44;100.00;98680.56;4968248;28;20208;-76
2024/01/03 07:52:43;;;;;;;21.47;3.60;;;;;;;8.12;100.00;98757.34;4981651;28;20212;-75
2024/01/03 07:55:10;;;;;;;25.33;4.73;;;;;;;8.06;100.00;98734.25;4992952;28;20534;-75
2024/01/03 07:57:35;;;;;;;18.47;3.40;;;;;;;7.47;100.00;98613.41;4984855;28;20773;-75
2024/01/03 08:00:01;;;;;;;20.60;3.93;;;;;;;8.28;100.00;98739.00;5001697;28;20471;-75
2024/01/03 08:02:26;;;;;;;15.83;2.93;;;;;;;8.26;100.00;98779.28;4998086;28;20588;-75
2024/01/03 08:04:52;;;;;;;23.10;2.90;;;;;;;8.30;100.00;98748.41;4991838;28;20181;-75
2024/01/03 08:07:17;;;;;;;13.90;2.67;;;;;;;8.23;100.00;98736.22;4990155;28;20585;-75
2024/01/03 08:09:43;;;;;;;12.20;2.90;;;;;;;8.28;100.00;98753.16;4980846;28;20239;-75
2024/01/03 08:12:11;;;;;;;17.20;3.90;;;;;;;7.68;100.00;98654.69;4994124;28;20236;-75
2024/01/03 08:14:37;;;;;;;16.13;3.10;;;;;;;8.12;100.00;98725.31;5002082;28;20192;-74
2024/01/03 08:17:03;;;;;;;19.23;3.30;;;;;;;7.81;100.00;98681.16;4999215;28;20479;-75
2024/01/03 08:19:28;;;;;;;20.75;3.63;;;;;;;7.46;100.00;98612.59;4983345;28;20498;-74
2024/01/03 08:21:54;;;;;;;23.30;4.20;;;;;;;8.30;100.00;98743.06;4994643;28;20185;-75
2024/01/03 08:24:20;;;;;;;20.40;3.57;;;;;;;8.37;100.00;98767.78;4997282;28;20185;-75
2024/01/03 08:26:47;;;;;;;19.20;3.60;;;;;;;8.01;100.00;98728.81;5003117;28;20467;-75
2024/01/03 08:29:12;;;;;;;16.77;3.47;;;;;;;8.29;100.00;98756.66;4982111;28;21067;-75
2024/01/03 08:31:38;;;;;;;17.87;3.37;;;;;;;8.18;100.00;98754.81;4976577;28;20463;-74
2024/01/03 08:34:04;;;;;;;16.80;3.57;;;;;;;8.40;100.00;98787.91;4979270;28;20826;-74
2024/01/03 08:36:40;;;;;;;15.40;3.47;;;;;;;8.40;100.00;98785.22;4997619;28;20268;-74
2024/01/03 08:39:05;;;;;;;14.73;3.37;;;;;;;8.38;100.00;98777.44;4978973;28;20200;-74
2024/01/03 08:41:31;;;;;;;14.87;2.90;;;;;;;8.24;100.00;98778.69;5000240;28;20473;-74
2024/01/03 08:43:57;;;;;;;12.80;2.67;;;;;;;8.34;100.00;98791.50;4995773;28;20189;-74
2024/01/03 08:46:25;;;;;;;15.87;2.67;;;;;;;8.04;100.00;98754.22;4983461;28;20275;-74
2024/01/03 08:48:50;;;;;;;15.13;3.63;;;;;;;8.44;100.00;98825.66;4994289;28;20475;-75
2024/01/03 08:51:18;;;;;;;13.00;2.63;;;;;;;8.14;100.00;98794.50;5003007;28;20450;-74
2024/01/03 08:53:44;;;;;;;19.00;3.10;;;;;;;8.43;100.00;98872.94;4990356;28;20188;-74
2024/01/03 08:56:17;;;;;;;17.10;3.10;;;;;;;8.43;100.00;98850.75;4993018;28;20448;-75
2024/01/03 08:58:45;;;;;;;15.33;2.20;;;;;;;8.23;100.00;98821.69;4950700;28;20205;-75
2024/01/03 09:01:29;;;;;;;14.67;2.83;;;;;;;8.03;100.00;98808.69;4987799;28;20781;-74
2024/01/03 09:03:54;;;;;;;9.93;2.70;;;;;;;7.77;100.00;98760.03;4978376;28;20440;-75
2024/01/03 09:06:21;;;;;;;18.60;3.73;;;;;;;8.33;100.00;98845.94;5000530;28;20952;-75
2024/01/03 09:08:51;;;;;;;9.83;2.30;;;;;;;8.26;100.00;98835.38;4994928;28;20228;-74
2024/01/03 09:11:23;;;;;;;11.40;2.60;;;;;;;8.22;100.00;98828.09;4998857;28;20451;-75
2024/01/03 09:13:49;;;;;;;20.63;3.37;;;;;;;8.11;100.00;98821.69;4998017;28;20968;-74
2024/01/03 09:16:18;;;;;;;13.70;3.07;;;;;;;8.27;100.00;98852.22;4995333;28;20436;-75
2024/01/03 09:18:45;;;;;;;12.90;2.50;;;;;;;8.39;100.00;98871.78;4991141;28;20472;-74
2024/01/03 09:21:11;;;;;;;13.20;2.90;;;;;;;7.70;100.00;98805.50;4979409;28;20456;-74
2024/01/03 09:23:36;;;;;;;13.20;2.57;;;;;;;8.43;100.00;98888.16;4999803;28;20445;-75
2024/01/03 09:26:05;;;;;;;18.97;3.40;;;;;;;8.47;100.00;98897.31;4993066;28;20177;-75
2024/01/03 09:28:31;;;;;;;16.97;2.90;;;;;;;8.28;100.00;98868.03;4979054;28;20296;-75
2024/01/03 09:30:57;;;;;;;12.80;3.60;;;;;;;7.29;100.00;98707.69;4999345;28;20924;-75
2024/01/03 09:33:23;;;;;;;12.93;2.53;;;;;;;8.26;100.00;98864.75;4990112;28;20498;-75
2024/01/03 09:35:48;;;;;;;9.77;2.23;;;;;;;7.68;100.00;98788.91;5001680;28;20748;-75
2024/01/03 09:38:17;;;;;;;8.43;1.47;;;;;;;8.28;100.00;98880.56;4998377;28;20461;-75
2024/01/03 09:40:43;;;;;;;12.10;2.10;;;;;;;8.20;100.00;98878.22;5001957;28;20279;-75
2024/01/03 09:43:10;;;;;;;14.10;2.27;;;;;;;8.49;100.00;98912.06;4973628;28;20445;-75
2024/01/03 09:45:35;;;;;;;13.10;2.50;;;;;;;8.31;100.00;98870.22;4996438;28;20512;-75
2024/01/03 09:48:01;;;;;;;13.93;2.47;;;;;;;8.41;100.00;98883.03;4998139;28;20845;-75
2024/01/03 09:50:27;;;;;;;9.40;2.20;;;;;;;8.09;100.00;98853.94;4982241;28;20180;-75
2024/01/03 09:52:56;;;;;;;11.13;2.27;;;;;;;8.58;100.00;98926.72;4982954;28;20447;-74
2024/01/03 09:55:22;;;;;;;10.37;2.30;;;;;;;8.26;100.00;98896.81;4991628;28;20232;-75
2024/01/03 09:57:49;;;;;;;16.57;2.63;;;;;;;7.85;100.00;98823.75;4998512;28;21009;-75
2024/01/03 10:00:15;;;;;;;13.40;2.23;;;;;;;8.41;100.00;98925.78;5002251;28;20216;-75
2024/01/03 10:02:45;;;;;;;11.93;1.97;;;;;;;8.57;100.00;98949.13;5003861;28;20452;-75
2024/01/03 10:05:17;;;;;;;11.70;3.20;;;;;;;8.62;100.00;98944.94;4993638;28;20951;-75
2024/01/03 10:07:43;;;;;;;15.93;2.80;;;;;;;7.96;100.00;98837.34;4992067;28;20467;-75
2024/01/03 10:10:08;;;;;;;15.50;2.90;;;;;;;8.33;100.00;98892.19;5000274;28;20828;-74
2024/01/03 10:12:34;;;;;;;16.13;3.63;;;;;;;8.35;100.00;98910.63;4983285;28;23986;-74
2024/01/03 10:15:30;;;;;;;13.80;2.60;;;;;;;8.46;100.00;98925.09;4984919;28;20268;-75
2024/01/03 10:18:05;;;;;;;19.53;3.60;;;;;;;8.59;100.00;98951.56;4978037;28;20217;-75
2024/01/03 10:20:30;;;;;;;10.10;2.03;;;;;;;8.56;100.00;98944.00;4969124;28;20470;-75
2024/01/03 10:23:13;;;;;;;11.33;2.17;;;;;;;8.56;100.00;98933.31;4971246;28;20825;-75
2024/01/03 10:25:42;;;;;;;14.30;2.60;;;;;;;8.53;100.00;98950.66;4987030;28;20184;-75
2024/01/03 10:28:10;;;;;;;9.77;2.10;;;;;;;8.25;100.00;98911.22;4983514;28;20463;-75
2024/01/03 10:30:36;;;;;;;8.10;1.87;;;;;;;8.45;100.00;98942.97;4992153;28;20490;-75
2024/01/03 10:33:09;;;;;;;10.57;1.80;;;;;;;8.20;100.00;98892.41;4995992;28;20475;-75
2024/01/03 10:35:36;;;;;;;10.57;2.73;;;;;;;7.85;100.00;98861.13;4971497;28;20574;-74
2024/01/03 10:38:03;;;;;;;15.30;2.23;;;;;;;8.54;100.00;98970.97;4977867;28;20868;-75
2024/01/03 10:40:31;;;;;;;12.87;2.23;;;;;;;8.37;100.00;98933.41;4996277;28;20464;-75
2024/01/03 10:42:57;;;;;;;14.47;2.80;;;;;;;8.45;100.00;98964.34;4988833;28;20528;-75
2024/01/03 10:45:23;;;;;;;11.17;2.07;;;;;;;8.46;100.00;98975.84;4974031;28;20532;-75
2024/01/03 10:47:49;;;;;;;12.07;2.57;;;;;;;8.14;100.00;98934.19;4987600;28;20491;-75
2024/01/03 10:50:15;;;;;;;11.67;1.90;;;;;;;8.13;100.00;98929.09;4969289;28;20460;-75
2024/01/03 10:52:42;;;;;;;12.70;2.60;;;;;;;8.30;100.00;98972.78;4992813;28;20197;-75
2024/01/03 10:55:34;;;;;;;10.43;2.60;;;;;;;8.05;100.00;98940.91;4992314;28;20185;-75
2024/01/03 10:58:02;;;;;;;9.27;1.97;;;;;;;8.01;100.00;98933.56;4955574;28;20999;-75
2024/01/03 11:00:48;;;;;;;14.40;2.00;;;;;;;7.63;100.00;98860.81;4964056;28;21677;-75
2024/01/03 11:03:45;;;;;;;10.93;1.73;;;;;;;8.13;100.00;98945.13;4985580;28;20818;-75
2024/01/03 11:06:24;;;;;;;11.10;1.87;;;;;;;8.19;100.00;98943.34;4962879;28;20878;-74
2024/01/03 11:08:52;;;;;;;10.40;1.80;;;;;;;7.92;100.00;98917.88;4988485;28;20459;-73
2024/01/03 11:11:29;;;;;;;10.33;1.70;;;;;;;8.12;100.00;98941.59;4993555;28;20539;-74
2024/01/03 11:13:58;;;;;;;14.57;3.27;;;;;;;7.60;100.00;98865.81;4983112;28;20432;-74
2024/01/03 11:16:38;;;;;;;9.80;1.43;;;;;;;7.80;100.00;98909.03;4965562;28;20487;-74
2024/01/03 11:19:05;;;;;;;8.63;1.70;;;;;;;8.18;100.00;98941.75;4985706;28;20499;-74
2024/01/03 11:21:35;;;;;;;8.90;2.13;;;;;;;8.15;100.00;98933.13;4973698;28;20506;-74
2024/01/03 11:24:20;;;;;;;7.60;1.70;;;;;;;8.14;100.00;98952.06;4966050;28;21528;-74
2024/01/03 11:26:52;;;;;;;7.87;2.00;;;;;;;8.09;100.00;98946.59;4949052;28;21008;-74